sensor_id;sensor_type;location;lat;lon;timestamp;pressure;altitude;pressure_sealevel;temperature;humidity
62402;BME280;48440;51.224;22.506;2023-04-22T00:01:36;99033.38;;;12.14;46.55
62402;BME280;48440;51.224;22.506;2023-04-22T00:04:02;99036.09;;;12.19;46.53
62402;BME280;48440;51.224;22.506;2023-04-22T00:06:27;99034.47;;;12.13;46.32
62402;BME280;48440;51.224;22.506;2023-04-22T00:08:53;99034.19;;;12.14;46.59
62402;BME280;48440;51.224;22.506;2023-04-22T00:11:18;99028.50;;;12.16;46.21
62402;BME280;48440;51.224;22.506;2023-04-22T00:13:44;99032.84;;;12.12;46.34
62402;BME280;48440;51.224;22.506;2023-04-22T00:16:09;99029.84;;;12.13;46.37
62402;BME280;48440;51.224;22.506;2023-04-22T00:18:35;99028.19;;;12.07;46.47
62402;BME280;48440;51.224;22.506;2023-04-22T00:21:03;99027.91;;;12.04;46.20
62402;BME280;48440;51.224;22.506;2023-04-22T00:23:28;99020.84;;;12.03;46.52
62402;BME280;48440;51.224;22.506;2023-04-22T00:25:56;99021.13;;;12.01;46.80
62402;BME280;48440;51.224;22.506;2023-04-22T00:28:22;99017.31;;;11.97;46.92
62402;BME280;48440;51.224;22.506;2023-04-22T00:30:47;99022.75;;;11.87;46.74
62402;BME280;48440;51.224;22.506;2023-04-22T00:33:12;99024.38;;;11.83;47.29
62402;BME280;48440;51.224;22.506;2023-04-22T00:35:38;99023.00;;;11.80;47.34
62402;BME280;48440;51.224;22.506;2023-04-22T00:38:03;99019.41;;;11.75;47.57
62402;BME280;48440;51.224;22.506;2023-04-22T00:40:29;99015.31;;;11.72;48.22
62402;BME280;48440;51.224;22.506;2023-04-22T00:42:54;99016.47;;;11.76;47.95
62402;BME280;48440;51.224;22.506;2023-04-22T00:45:20;99022.41;;;11.68;48.19
62402;BME280;48440;51.224;22.506;2023-04-22T00:47:46;99016.91;;;11.53;48.27
62402;BME280;48440;51.224;22.506;2023-04-22T00:50:12;99018.31;;;11.61;48.20
62402;BME280;48440;51.224;22.506;2023-04-22T00:52:38;99013.16;;;11.64;47.94
62402;BME280;48440;51.224;22.506;2023-04-22T00:55:03;99018.59;;;11.64;48.05
62402;BME280;48440;51.224;22.506;2023-04-22T00:57:29;99020.19;;;11.55;48.72
62402;BME280;48440;51.224;22.506;2023-04-22T00:59:56;99020.47;;;11.53;48.50
62402;BME280;48440;51.224;22.506;2023-04-22T01:02:25;99012.59;;;11.57;48.54
62402;BME280;48440;51.224;22.506;2023-04-22T01:04:59;99014.78;;;11.60;48.50
62402;BME280;48440;51.224;22.506;2023-04-22T01:07:36;99011.25;;;11.60;48.38
62402;BME280;48440;51.224;22.506;2023-04-22T01:10:04;99011.53;;;11.63;48.55
62402;BME280;48440;51.224;22.506;2023-04-22T01:12:30;99016.13;;;11.57;48.84
62402;BME280;48440;51.224;22.506;2023-04-22T01:14:55;99012.06;;;11.60;49.69
62402;BME280;48440;51.224;22.506;2023-04-22T01:17:21;99014.22;;;11.58;49.38
62402;BME280;48440;51.224;22.506;2023-04-22T01:19:48;99006.06;;;11.58;48.98
62402;BME280;48440;51.224;22.506;2023-04-22T01:22:14;99013.13;;;11.54;48.90
62402;BME280;48440;51.224;22.506;2023-04-22T01:24:40;99012.84;;;11.50;49.24
62402;BME280;48440;51.224;22.506;2023-04-22T01:27:07;99002.22;;;11.49;49.41
62402;BME280;48440;51.224;22.506;2023-04-22T01:29:32;99012.56;;;11.42;50.00
62402;BME280;48440;51.224;22.506;2023-04-22T01:32:00;98999.78;;;11.47;50.62
62402;BME280;48440;51.224;22.506;2023-04-22T01:34:27;99008.47;;;11.39;51.64
62402;BME280;48440;51.224;22.506;2023-04-22T01:36:55;99008.44;;;11.34;52.11
62402;BME280;48440;51.224;22.506;2023-04-22T01:39:21;99006.56;;;11.40;51.86
62402;BME280;48440;51.224;22.506;2023-04-22T01:41:46;99006.00;;;11.33;52.47
62402;BME280;48440;51.224;22.506;2023-04-22T01:44:12;99002.19;;;11.34;52.74
62402;BME280;48440;51.224;22.506;2023-04-22T01:46:38;99003.00;;;11.29;52.50
62402;BME280;48440;51.224;22.506;2023-04-22T01:49:03;99010.31;;;11.23;52.80
62402;BME280;48440;51.224;22.506;2023-04-22T01:51:29;99010.56;;;11.22;53.30
62402;BME280;48440;51.224;22.506;2023-04-22T01:53:56;99005.69;;;11.24;53.10
62402;BME280;48440;51.224;22.506;2023-04-22T01:56:21;99004.34;;;11.27;53.42
62402;BME280;48440;51.224;22.506;2023-04-22T01:58:47;99007.28;;;11.20;53.46
62402;BME280;48440;51.224;22.506;2023-04-22T02:01:13;99010.28;;;11.18;53.90
62402;BME280;48440;51.224;22.506;2023-04-22T02:03:38;99004.28;;;11.11;54.05
62402;BME280;48440;51.224;22.506;2023-04-22T02:06:04;99008.88;;;11.06;54.02
62402;BME280;48440;51.224;22.506;2023-04-22T02:08:30;98996.91;;;11.02;53.97
62402;BME280;48440;51.224;22.506;2023-04-22T02:10:55;99006.69;;;11.03;53.61
62402;BME280;48440;51.224;22.506;2023-04-22T02:13:22;99007.78;;;11.02;53.97
62402;BME280;48440;51.224;22.506;2023-04-22T02:15:47;98998.25;;;10.99;54.08
62402;BME280;48440;51.224;22.506;2023-04-22T02:18:14;99007.75;;;10.97;54.52
62402;BME280;48440;51.224;22.506;2023-04-22T02:20:42;99003.38;;;10.96;54.28
62402;BME280;48440;51.224;22.506;2023-04-22T02:23:07;99001.75;;;10.90;54.44
62402;BME280;48440;51.224;22.506;2023-04-22T02:25:33;99004.16;;;10.86;54.64
62402;BME280;48440;51.224;22.506;2023-04-22T02:27:58;98996.84;;;10.86;54.39
62402;BME280;48440;51.224;22.506;2023-04-22T02:30:23;98996.59;;;10.88;54.10
62402;BME280;48440;51.224;22.506;2023-04-22T02:32:49;98994.94;;;10.92;54.26
62402;BME280;48440;51.224;22.506;2023-04-22T02:35:14;98997.16;;;10.90;55.37
62402;BME280;48440;51.224;22.506;2023-04-22T02:37:40;98988.16;;;10.84;55.62
62402;BME280;48440;51.224;22.506;2023-04-22T02:40:06;98989.75;;;10.80;55.46
62402;BME280;48440;51.224;22.506;2023-04-22T02:42:34;98994.88;;;10.77;55.22
62402;BME280;48440;51.224;22.506;2023-04-22T02:45:00;98984.63;;;10.84;54.92
62402;BME280;48440;51.224;22.506;2023-04-22T02:47:25;98984.63;;;10.84;54.81
62402;BME280;48440;51.224;22.506;2023-04-22T02:49:51;98990.31;;;10.82;54.91
62402;BME280;48440;51.224;22.506;2023-04-22T02:52:16;98984.06;;;10.82;54.76
62402;BME280;48440;51.224;22.506;2023-04-22T02:54:41;98988.69;;;10.86;54.84
62402;BME280;48440;51.224;22.506;2023-04-22T02:57:07;98983.78;;;10.78;55.14
62402;BME280;48440;51.224;22.506;2023-04-22T02:59:33;98991.06;;;10.73;55.17
62402;BME280;48440;51.224;22.506;2023-04-22T03:01:59;98995.63;;;10.67;55.44
62402;BME280;48440;51.224;22.506;2023-04-22T03:04:24;98996.72;;;10.61;55.67
62402;BME280;48440;51.224;22.506;2023-04-22T03:06:50;98997.50;;;10.57;55.81
62402;BME280;48440;51.224;22.506;2023-04-22T03:09:16;98996.06;;;10.49;55.52
62402;BME280;48440;51.224;22.506;2023-04-22T03:11:42;98997.16;;;10.48;55.85
62402;BME280;48440;51.224;22.506;2023-04-22T03:14:07;98996.84;;;10.44;55.39
62402;BME280;48440;51.224;22.506;2023-04-22T03:16:33;98993.63;;;10.47;55.71
62402;BME280;48440;51.224;22.506;2023-04-22T03:18:58;98992.56;;;10.53;55.60
62402;BME280;48440;51.224;22.506;2023-04-22T03:21:27;98992.09;;;10.62;55.17
62402;BME280;48440;51.224;22.506;2023-04-22T03:23:52;99003.47;;;10.59;55.10
62402;BME280;48440;51.224;22.506;2023-04-22T03:26:18;99002.56;;;10.48;55.60
62402;BME280;48440;51.224;22.506;2023-04-22T03:28:44;99010.66;;;10.43;55.71
62402;BME280;48440;51.224;22.506;2023-04-22T03:31:09;99009.84;;;10.37;56.14
62402;BME280;48440;51.224;22.506;2023-04-22T03:33:35;99010.34;;;10.34;55.65
62402;BME280;48440;51.224;22.506;2023-04-22T03:36:00;99009.28;;;10.35;56.06
62402;BME280;48440;51.224;22.506;2023-04-22T03:38:26;99012.28;;;10.39;56.09
62402;BME280;48440;51.224;22.506;2023-04-22T03:40:51;99023.97;;;10.39;55.77
62402;BME280;48440;51.224;22.506;2023-04-22T03:43:17;99019.31;;;10.40;55.69
62402;BME280;48440;51.224;22.506;2023-04-22T03:45:43;99013.63;;;10.36;56.07
62402;BME280;48440;51.224;22.506;2023-04-22T03:48:09;99018.44;;;10.29;56.01
62402;BME280;48440;51.224;22.506;2023-04-22T03:50:34;99019.31;;;10.40;55.82
62402;BME280;48440;51.224;22.506;2023-04-22T03:53:00;99019.88;;;10.42;56.03
62402;BME280;48440;51.224;22.506;2023-04-22T03:55:25;99020.44;;;10.39;56.73
62402;BME280;48440;51.224;22.506;2023-04-22T03:57:51;99018.19;;;10.31;56.72
62402;BME280;48440;51.224;22.506;2023-04-22T04:00:16;99025.03;;;10.38;56.55
62402;BME280;48440;51.224;22.506;2023-04-22T04:02:42;99019.88;;;10.42;56.96
62402;BME280;48440;51.224;22.506;2023-04-22T04:05:07;99020.69;;;10.42;56.79
62402;BME280;48440;51.224;22.506;2023-04-22T04:07:35;99025.84;;;10.39;56.64
62402;BME280;48440;51.224;22.506;2023-04-22T04:10:00;99029.41;;;10.44;56.68
62402;BME280;48440;51.224;22.506;2023-04-22T04:12:26;99031.63;;;10.52;57.39
62402;BME280;48440;51.224;22.506;2023-04-22T04:14:51;99036.06;;;10.64;57.34
62402;BME280;48440;51.224;22.506;2023-04-22T04:17:17;99033.03;;;10.55;57.19
62402;BME280;48440;51.224;22.506;2023-04-22T04:19:42;99041.69;;;10.52;57.26
62402;BME280;48440;51.224;22.506;2023-04-22T04:22:08;99035.16;;;10.53;56.93
62402;BME280;48440;51.224;22.506;2023-04-22T04:24:34;99042.31;;;10.64;57.71
62402;BME280;48440;51.224;22.506;2023-04-22T04:27:04;99039.66;;;10.74;57.91
62402;BME280;48440;51.224;22.506;2023-04-22T04:29:29;99039.19;;;10.87;57.72
62402;BME280;48440;51.224;22.506;2023-04-22T04:31:55;99040.28;;;10.86;57.53
62402;BME280;48440;51.224;22.506;2023-04-22T04:34:22;99039.53;;;11.01;57.19
62402;BME280;48440;51.224;22.506;2023-04-22T04:36:47;99041.97;;;11.03;57.20
62402;BME280;48440;51.224;22.506;2023-04-22T04:39:13;99038.75;;;11.06;56.90
62402;BME280;48440;51.224;22.506;2023-04-22T04:41:41;99042.81;;;11.03;56.92
62402;BME280;48440;51.224;22.506;2023-04-22T04:44:08;99047.16;;;11.04;56.79
62402;BME280;48440;51.224;22.506;2023-04-22T04:46:34;99047.72;;;11.06;56.77
62402;BME280;48440;51.224;22.506;2023-04-22T04:49:02;99052.06;;;11.07;56.19
62402;BME280;48440;51.224;22.506;2023-04-22T04:51:29;99049.66;;;11.21;55.88
62402;BME280;48440;51.224;22.506;2023-04-22T04:53:56;99054.66;;;11.44;55.95
62402;BME280;48440;51.224;22.506;2023-04-22T04:56:22;99054.41;;;11.51;55.46
62402;BME280;48440;51.224;22.506;2023-04-22T04:58:48;99052.00;;;11.60;55.78
62402;BME280;48440;51.224;22.506;2023-04-22T05:01:13;99055.28;;;11.72;55.43
62402;BME280;48440;51.224;22.506;2023-04-22T05:03:39;99054.56;;;11.92;54.40
62402;BME280;48440;51.224;22.506;2023-04-22T05:06:05;99052.44;;;12.19;53.90
62402;BME280;48440;51.224;22.506;2023-04-22T05:08:31;99052.16;;;12.36;54.13
62402;BME280;48440;51.224;22.506;2023-04-22T05:10:56;99052.41;;;12.49;53.46
62402;BME280;48440;51.224;22.506;2023-04-22T05:13:22;99058.91;;;12.74;52.26
62402;BME280;48440;51.224;22.506;2023-04-22T05:15:47;99050.47;;;12.96;51.25
62402;BME280;48440;51.224;22.506;2023-04-22T05:18:13;99056.13;;;13.19;50.23
62402;BME280;48440;51.224;22.506;2023-04-22T05:20:38;99059.59;;;13.45;48.85
62402;BME280;48440;51.224;22.506;2023-04-22T05:23:04;99055.31;;;13.78;49.20
62402;BME280;48440;51.224;22.506;2023-04-22T05:25:30;99053.75;;;14.11;48.55
62402;BME280;48440;51.224;22.506;2023-04-22T05:27:55;99062.03;;;14.35;47.93
62402;BME280;48440;51.224;22.506;2023-04-22T05:30:21;99053.59;;;14.66;47.35
62402;BME280;48440;51.224;22.506;2023-04-22T05:32:46;99058.25;;;14.94;47.06
62402;BME280;48440;51.224;22.506;2023-04-22T05:35:31;99066.59;;;15.32;46.05
62402;BME280;48440;51.224;22.506;2023-04-22T05:37:57;99061.38;;;15.59;45.87
62402;BME280;48440;51.224;22.506;2023-04-22T05:40:22;99061.63;;;15.81;45.49
62402;BME280;48440;51.224;22.506;2023-04-22T05:42:48;99065.03;;;16.11;45.19
62402;BME280;48440;51.224;22.506;2023-04-22T05:45:13;99060.13;;;16.26;43.86
62402;BME280;48440;51.224;22.506;2023-04-22T05:47:39;99064.34;;;16.19;43.60
62402;BME280;48440;51.224;22.506;2023-04-22T05:50:06;99066.69;;;15.88;43.50
62402;BME280;48440;51.224;22.506;2023-04-22T05:52:31;99075.47;;;15.66;44.59
62402;BME280;48440;51.224;22.506;2023-04-22T05:54:57;99062.84;;;15.46;45.35
62402;BME280;48440;51.224;22.506;2023-04-22T05:57:22;99077.44;;;15.37;45.85
62402;BME280;48440;51.224;22.506;2023-04-22T05:59:53;99064.59;;;15.37;46.31
62402;BME280;48440;51.224;22.506;2023-04-22T06:02:21;99068.09;;;15.43;47.00
62402;BME280;48440;51.224;22.506;2023-04-22T06:04:46;99077.41;;;15.42;45.96
62402;BME280;48440;51.224;22.506;2023-04-22T06:07:12;99062.72;;;15.80;46.11
62402;BME280;48440;51.224;22.506;2023-04-22T06:09:37;99067.53;;;16.26;47.22
62402;BME280;48440;51.224;22.506;2023-04-22T06:12:06;99066.38;;;16.65;46.67
62402;BME280;48440;51.224;22.506;2023-04-22T06:14:32;99069.13;;;17.11;46.22
62402;BME280;48440;51.224;22.506;2023-04-22T06:16:57;99066.13;;;16.93;44.34
62402;BME280;48440;51.224;22.506;2023-04-22T06:19:25;99070.94;;;16.69;44.28
62402;BME280;48440;51.224;22.506;2023-04-22T06:21:51;99067.13;;;16.51;44.32
62402;BME280;48440;51.224;22.506;2023-04-22T06:24:16;99076.69;;;16.35;45.48
62402;BME280;48440;51.224;22.506;2023-04-22T06:26:42;99067.44;;;16.31;44.90
62402;BME280;48440;51.224;22.506;2023-04-22T06:29:07;99069.91;;;16.33;44.61
62402;BME280;48440;51.224;22.506;2023-04-22T06:31:33;99062.00;;;16.45;45.45
62402;BME280;48440;51.224;22.506;2023-04-22T06:33:58;99066.34;;;16.97;45.29
62402;BME280;48440;51.224;22.506;2023-04-22T06:36:25;99068.41;;;17.60;44.82
62402;BME280;48440;51.224;22.506;2023-04-22T06:38:51;99069.00;;;17.84;46.17
62402;BME280;48440;51.224;22.506;2023-04-22T06:41:17;99069.38;;;18.05;44.42
62402;BME280;48440;51.224;22.506;2023-04-22T06:43:42;99064.00;;;18.00;43.95
62402;BME280;48440;51.224;22.506;2023-04-22T06:46:08;99066.19;;;17.76;44.04
62402;BME280;48440;51.224;22.506;2023-04-22T06:48:34;99070.63;;;17.85;43.46
62402;BME280;48440;51.224;22.506;2023-04-22T06:50:59;99076.19;;;17.94;44.07
62402;BME280;48440;51.224;22.506;2023-04-22T06:53:26;99070.25;;;18.14;43.78
62402;BME280;48440;51.224;22.506;2023-04-22T06:55:52;99066.84;;;18.53;43.20
62402;BME280;48440;51.224;22.506;2023-04-22T06:58:19;99071.31;;;18.63;41.64
62402;BME280;48440;51.224;22.506;2023-04-22T07:00:45;99070.88;;;19.01;40.63
62402;BME280;48440;51.224;22.506;2023-04-22T07:03:10;99074.38;;;19.23;40.52
62402;BME280;48440;51.224;22.506;2023-04-22T07:05:36;99075.69;;;19.57;38.59
62402;BME280;48440;51.224;22.506;2023-04-22T07:08:02;99070.13;;;19.96;37.43
62402;BME280;48440;51.224;22.506;2023-04-22T07:10:27;99071.72;;;20.06;35.63
62402;BME280;48440;51.224;22.506;2023-04-22T07:12:53;99074.50;;;20.32;34.85
62402;BME280;48440;51.224;22.506;2023-04-22T07:15:18;99077.44;;;20.53;35.45
62402;BME280;48440;51.224;22.506;2023-04-22T07:17:43;99075.31;;;20.24;33.09
62402;BME280;48440;51.224;22.506;2023-04-22T07:20:09;99069.13;;;20.27;33.87
62402;BME280;48440;51.224;22.506;2023-04-22T07:22:35;99079.88;;;20.46;33.18
62402;BME280;48440;51.224;22.506;2023-04-22T07:25:01;99071.09;;;20.70;32.16
62402;BME280;48440;51.224;22.506;2023-04-22T07:27:26;99076.75;;;20.82;31.20
62402;BME280;48440;51.224;22.506;2023-04-22T07:29:52;99079.16;;;21.00;31.68
62402;BME280;48440;51.224;22.506;2023-04-22T07:32:17;99071.28;;;21.20;33.08
62402;BME280;48440;51.224;22.506;2023-04-22T07:34:42;99082.13;;;21.33;32.38
62402;BME280;48440;51.224;22.506;2023-04-22T07:37:08;99079.69;;;21.41;31.58
62402;BME280;48440;51.224;22.506;2023-04-22T07:39:33;99082.72;;;21.56;32.33
62402;BME280;48440;51.224;22.506;2023-04-22T07:41:59;99080.50;;;21.71;32.36
62402;BME280;48440;51.224;22.506;2023-04-22T07:44:24;99073.84;;;21.72;31.11
62402;BME280;48440;51.224;22.506;2023-04-22T07:46:50;99079.59;;;21.87;31.87
62402;BME280;48440;51.224;22.506;2023-04-22T07:49:15;99071.53;;;21.82;30.95
62402;BME280;48440;51.224;22.506;2023-04-22T07:51:43;99069.53;;;21.83;30.90
62402;BME280;48440;51.224;22.506;2023-04-22T07:54:08;99073.88;;;21.92;30.73
62402;BME280;48440;51.224;22.506;2023-04-22T07:56:34;99073.06;;;21.92;30.59
62402;BME280;48440;51.224;22.506;2023-04-22T07:58:59;99076.53;;;22.10;31.54
62402;BME280;48440;51.224;22.506;2023-04-22T08:01:25;99074.81;;;22.26;30.52
62402;BME280;48440;51.224;22.506;2023-04-22T08:04:08;99067.38;;;22.39;29.05
62402;BME280;48440;51.224;22.506;2023-04-22T08:06:43;99082.13;;;22.43;29.57
62402;BME280;48440;51.224;22.506;2023-04-22T08:09:11;99071.81;;;22.52;29.57
62402;BME280;48440;51.224;22.506;2023-04-22T08:11:40;99073.09;;;22.54;28.98
62402;BME280;48440;51.224;22.506;2023-04-22T08:14:28;99072.66;;;22.64;29.33
62402;BME280;48440;51.224;22.506;2023-04-22T08:17:14;99077.28;;;22.60;29.76
62402;BME280;48440;51.224;22.506;2023-04-22T08:19:45;99069.50;;;22.75;30.71
62402;BME280;48440;51.224;22.506;2023-04-22T08:22:11;99072.06;;;22.80;30.81
62402;BME280;48440;51.224;22.506;2023-04-22T08:24:37;99069.09;;;22.85;31.60
62402;BME280;48440;51.224;22.506;2023-04-22T08:27:03;99068.59;;;22.50;30.64
62402;BME280;48440;51.224;22.506;2023-04-22T08:29:29;99073.59;;;22.68;31.66
62402;BME280;48440;51.224;22.506;2023-04-22T08:31:54;99064.47;;;22.89;31.88
62402;BME280;48440;51.224;22.506;2023-04-22T08:34:19;99069.81;;;22.94;30.14
62402;BME280;48440;51.224;22.506;2023-04-22T08:36:45;99066.56;;;22.92;30.20
62402;BME280;48440;51.224;22.506;2023-04-22T08:39:11;99065.75;;;22.91;29.53
62402;BME280;48440;51.224;22.506;2023-04-22T08:41:40;99072.84;;;22.47;29.97
62402;BME280;48440;51.224;22.506;2023-04-22T08:44:11;99074.31;;;21.74;31.08
62402;BME280;48440;51.224;22.506;2023-04-22T08:46:39;99071.63;;;21.18;31.97
62402;BME280;48440;51.224;22.506;2023-04-22T08:49:05;99076.47;;;20.75;32.47
62402;BME280;48440;51.224;22.506;2023-04-22T08:51:31;99069.97;;;20.36;32.57
62402;BME280;48440;51.224;22.506;2023-04-22T08:54:00;99071.09;;;20.01;33.25
62402;BME280;48440;51.224;22.506;2023-04-22T08:56:25;99073.13;;;19.78;34.54
62402;BME280;48440;51.224;22.506;2023-04-22T08:58:53;99071.38;;;19.82;35.72
62402;BME280;48440;51.224;22.506;2023-04-22T09:01:20;99066.22;;;19.97;35.36
62402;BME280;48440;51.224;22.506;2023-04-22T09:03:56;99068.13;;;19.80;33.84
62402;BME280;48440;51.224;22.506;2023-04-22T09:06:32;99069.69;;;19.55;34.59
62402;BME280;48440;51.224;22.506;2023-04-22T09:08:58;99079.47;;;19.39;35.50
62402;BME280;48440;51.224;22.506;2023-04-22T09:11:28;99067.06;;;19.10;35.82
62402;BME280;48440;51.224;22.506;2023-04-22T09:13:53;99068.44;;;18.99;36.68
62402;BME280;48440;51.224;22.506;2023-04-22T09:16:19;99074.41;;;18.92;37.42
62402;BME280;48440;51.224;22.506;2023-04-22T09:18:45;99067.09;;;18.88;37.51
62402;BME280;48440;51.224;22.506;2023-04-22T09:21:11;99069.66;;;18.84;36.26
62402;BME280;48440;51.224;22.506;2023-04-22T09:24:02;99066.22;;;18.79;37.06
62402;BME280;48440;51.224;22.506;2023-04-22T09:26:31;99070.72;;;18.75;36.33
62402;BME280;48440;51.224;22.506;2023-04-22T09:28:57;99070.88;;;18.70;36.59
62402;BME280;48440;51.224;22.506;2023-04-22T09:31:23;99068.59;;;18.72;37.91
62402;BME280;48440;51.224;22.506;2023-04-22T09:33:55;99077.00;;;18.67;37.65
62402;BME280;48440;51.224;22.506;2023-04-22T09:36:31;99068.88;;;18.61;37.78
62402;BME280;48440;51.224;22.506;2023-04-22T09:39:06;99067.34;;;18.55;37.28
62402;BME280;48440;51.224;22.506;2023-04-22T09:41:33;99066.03;;;18.53;38.12
62402;BME280;48440;51.224;22.506;2023-04-22T09:44:00;99066.16;;;18.48;38.13
62402;BME280;48440;51.224;22.506;2023-04-22T09:46:28;99060.00;;;18.42;37.41
62402;BME280;48440;51.224;22.506;2023-04-22T09:48:55;99064.69;;;18.42;37.66
62402;BME280;48440;51.224;22.506;2023-04-22T09:51:21;99055.31;;;18.43;37.64
62402;BME280;48440;51.224;22.506;2023-04-22T09:54:16;99061.13;;;18.41;38.00
62402;BME280;48440;51.224;22.506;2023-04-22T09:59:06;99060.00;;;18.42;38.57
62402;BME280;48440;51.224;22.506;2023-04-22T10:01:37;99061.94;;;18.42;39.16
62402;BME280;48440;51.224;22.506;2023-04-22T10:04:11;99051.75;;;18.42;39.14
62402;BME280;48440;51.224;22.506;2023-04-22T10:06:39;99055.16;;;18.48;39.17
62402;BME280;48440;51.224;22.506;2023-04-22T10:09:05;99050.66;;;18.52;37.58
62402;BME280;48440;51.224;22.506;2023-04-22T10:11:32;99050.56;;;18.57;38.31
62402;BME280;48440;51.224;22.506;2023-04-22T10:13:58;99050.16;;;18.63;38.21
62402;BME280;48440;51.224;22.506;2023-04-22T10:16:32;99055.13;;;18.61;37.61
62402;BME280;48440;51.224;22.506;2023-04-22T10:19:00;99046.31;;;18.73;35.90
62402;BME280;48440;51.224;22.506;2023-04-22T10:21:29;99052.59;;;18.96;36.66
62402;BME280;48440;51.224;22.506;2023-04-22T10:23:57;99052.47;;;19.41;35.95
62402;BME280;48440;51.224;22.506;2023-04-22T10:29:16;99038.69;;;19.89;36.79
62402;BME280;48440;51.224;22.506;2023-04-22T10:31:43;99035.28;;;20.01;36.72
62402;BME280;48440;51.224;22.506;2023-04-22T10:34:13;99030.94;;;20.43;32.69
62402;BME280;48440;51.224;22.506;2023-04-22T10:39:30;99027.03;;;21.08;31.51
62402;BME280;48440;51.224;22.506;2023-04-22T10:47:10;99029.78;;;21.08;31.29
62402;BME280;48440;51.224;22.506;2023-04-22T10:49:35;99029.03;;;20.90;31.51
62402;BME280;48440;51.224;22.506;2023-04-22T10:52:01;99021.44;;;20.87;31.72
62402;BME280;48440;51.224;22.506;2023-04-22T10:57:09;99021.00;;;20.59;33.89
62402;BME280;48440;51.224;22.506;2023-04-22T10:59:56;99021.03;;;20.42;32.10
62402;BME280;48440;51.224;22.506;2023-04-22T11:02:22;99013.59;;;20.51;30.44
62402;BME280;48440;51.224;22.506;2023-04-22T11:04:49;99019.91;;;20.43;29.57
62402;BME280;48440;51.224;22.506;2023-04-22T11:10:00;99017.16;;;19.99;29.93
62402;BME280;48440;51.224;22.506;2023-04-22T11:17:35;99021.28;;;19.54;30.66
62402;BME280;48440;51.224;22.506;2023-04-22T11:20:02;99024.03;;;19.54;31.19
62402;BME280;48440;51.224;22.506;2023-04-22T11:22:36;99022.88;;;19.46;30.50
62402;BME280;48440;51.224;22.506;2023-04-22T11:25:03;99021.72;;;19.39;30.18
62402;BME280;48440;51.224;22.506;2023-04-22T11:27:29;99026.22;;;19.35;30.72
62402;BME280;48440;51.224;22.506;2023-04-22T11:30:11;99023.28;;;19.31;31.33
62402;BME280;48440;51.224;22.506;2023-04-22T11:32:39;99026.50;;;19.24;31.52
62402;BME280;48440;51.224;22.506;2023-04-22T11:35:07;99022.47;;;19.22;31.17
62402;BME280;48440;51.224;22.506;2023-04-22T11:37:43;99022.59;;;19.17;30.98
62402;BME280;48440;51.224;22.506;2023-04-22T11:40:30;99027.44;;;19.11;31.01
62402;BME280;48440;51.224;22.506;2023-04-22T11:42:58;99017.69;;;19.05;31.51
62402;BME280;48440;51.224;22.506;2023-04-22T11:45:25;99021.22;;;18.97;31.70
62402;BME280;48440;51.224;22.506;2023-04-22T11:47:51;99018.13;;;18.90;32.27
62402;BME280;48440;51.224;22.506;2023-04-22T11:50:20;99017.44;;;18.84;31.48
62402;BME280;48440;51.224;22.506;2023-04-22T11:52:54;99014.19;;;18.82;31.13
62402;BME280;48440;51.224;22.506;2023-04-22T11:55:23;99017.25;;;18.81;31.48
62402;BME280;48440;51.224;22.506;2023-04-22T12:00:20;99020.13;;;18.76;32.18
62402;BME280;48440;51.224;22.506;2023-04-22T12:02:59;99015.25;;;18.73;33.22
62402;BME280;48440;51.224;22.506;2023-04-22T12:05:31;99021.41;;;18.70;34.05
62402;BME280;48440;51.224;22.506;2023-04-22T12:08:19;99017.84;;;18.69;33.78
62402;BME280;48440;51.224;22.506;2023-04-22T12:10:47;99017.66;;;18.66;33.30
62402;BME280;48440;51.224;22.506;2023-04-22T12:13:39;99022.22;;;18.70;32.96
62402;BME280;48440;51.224;22.506;2023-04-22T12:16:10;99016.53;;;18.67;31.85
62402;BME280;48440;51.224;22.506;2023-04-22T12:18:50;99009.63;;;18.78;33.01
62402;BME280;48440;51.224;22.506;2023-04-22T12:21:18;99012.63;;;18.90;33.31
62402;BME280;48440;51.224;22.506;2023-04-22T12:23:45;99008.63;;;19.05;33.02
62402;BME280;48440;51.224;22.506;2023-04-22T12:26:13;99003.03;;;19.18;32.62
62402;BME280;48440;51.224;22.506;2023-04-22T12:28:40;99007.06;;;19.12;31.08
62402;BME280;48440;51.224;22.506;2023-04-22T12:31:07;99002.50;;;19.08;31.03
62402;BME280;48440;51.224;22.506;2023-04-22T12:33:33;99008.19;;;19.11;31.00
62402;BME280;48440;51.224;22.506;2023-04-22T12:35:59;98999.66;;;19.21;31.62
62402;BME280;48440;51.224;22.506;2023-04-22T12:38:24;99000.16;;;19.32;31.62
62402;BME280;48440;51.224;22.506;2023-04-22T12:40:51;98994.16;;;19.21;31.14
62402;BME280;48440;51.224;22.506;2023-04-22T12:43:16;98990.41;;;19.17;31.09
62402;BME280;48440;51.224;22.506;2023-04-22T12:45:42;98994.28;;;19.16;31.41
62402;BME280;48440;51.224;22.506;2023-04-22T12:48:07;98994.63;;;19.23;32.26
62402;BME280;48440;51.224;22.506;2023-04-22T12:50:33;98989.19;;;19.01;30.89
62402;BME280;48440;51.224;22.506;2023-04-22T12:52:58;98983.06;;;19.04;32.02
62402;BME280;48440;51.224;22.506;2023-04-22T12:55:24;98979.66;;;18.98;31.47
62402;BME280;48440;51.224;22.506;2023-04-22T12:57:50;98982.91;;;19.01;31.77
62402;BME280;48440;51.224;22.506;2023-04-22T13:00:16;98981.56;;;18.89;31.53
62402;BME280;48440;51.224;22.506;2023-04-22T13:02:43;98989.19;;;18.92;31.44
62402;BME280;48440;51.224;22.506;2023-04-22T13:05:10;98987.53;;;18.83;31.64
62402;BME280;48440;51.224;22.506;2023-04-22T13:07:36;98977.56;;;18.64;31.42
62402;BME280;48440;51.224;22.506;2023-04-22T13:10:02;98977.47;;;18.78;31.75
62402;BME280;48440;51.224;22.506;2023-04-22T13:12:31;98978.78;;;18.81;33.09
62402;BME280;48440;51.224;22.506;2023-04-22T13:14:57;98979.59;;;18.81;33.82
62402;BME280;48440;51.224;22.506;2023-04-22T13:17:22;98973.47;;;18.84;32.58